sensor_id;sensor_type;location;lat;lon;timestamp;P1;durP1;ratioP1;P2;durP2;ratioP2
13816;SDS011;6979;52.116;5.286;2023-02-03T00:01:35;5.70;;;2.57;;
13816;SDS011;6979;52.116;5.286;2023-02-03T00:04:01;5.13;;;3.00;;
13816;SDS011;6979;52.116;5.286;2023-02-03T00:06:29;5.53;;;2.90;;
13816;SDS011;6979;52.116;5.286;2023-02-03T00:08:57;8.17;;;3.40;;
13816;SDS011;6979;52.116;5.286;2023-02-03T00:11:26;5.77;;;3.10;;
13816;SDS011;6979;52.116;5.286;2023-02-03T00:13:55;7.30;;;3.00;;
13816;SDS011;6979;52.116;5.286;2023-02-03T00:16:24;9.57;;;3.27;;
13816;SDS011;6979;52.116;5.286;2023-02-03T00:18:51;4.97;;;2.43;;
13816;SDS011;6979;52.116;5.286;2023-02-03T00:21:17;5.93;;;2.80;;
13816;SDS011;6979;52.116;5.286;2023-02-03T00:23:44;13.97;;;3.60;;
13816;SDS011;6979;52.116;5.286;2023-02-03T00:26:12;8.30;;;3.20;;
13816;SDS011;6979;52.116;5.286;2023-02-03T00:28:41;4.83;;;3.30;;
13816;SDS011;6979;52.116;5.286;2023-02-03T00:31:13;5.70;;;3.00;;
13816;SDS011;6979;52.116;5.286;2023-02-03T00:34:09;5.93;;;2.67;;
13816;SDS011;6979;52.116;5.286;2023-02-03T00:36:36;4.97;;;2.53;;
13816;SDS011;6979;52.116;5.286;2023-02-03T00:39:02;4.30;;;2.70;;
13816;SDS011;6979;52.116;5.286;2023-02-03T00:41:34;7.90;;;2.80;;
13816;SDS011;6979;52.116;5.286;2023-02-03T00:44:09;9.13;;;3.07;;
13816;SDS011;6979;52.116;5.286;2023-02-03T00:46:36;5.40;;;3.00;;
13816;SDS011;6979;52.116;5.286;2023-02-03T00:49:03;15.30;;;8.07;;
13816;SDS011;6979;52.116;5.286;2023-02-03T00:51:31;9.50;;;4.67;;
13816;SDS011;6979;52.116;5.286;2023-02-03T00:53:59;6.60;;;3.40;;
13816;SDS011;6979;52.116;5.286;2023-02-03T00:56:27;7.77;;;3.47;;
13816;SDS011;6979;52.116;5.286;2023-02-03T00:58:59;9.73;;;3.00;;
13816;SDS011;6979;52.116;5.286;2023-02-03T01:01:29;3.83;;;2.50;;
13816;SDS011;6979;52.116;5.286;2023-02-03T01:03:56;8.70;;;2.80;;
13816;SDS011;6979;52.116;5.286;2023-02-03T01:06:24;5.80;;;3.00;;
13816;SDS011;6979;52.116;5.286;2023-02-03T01:08:53;4.57;;;2.63;;
13816;SDS011;6979;52.116;5.286;2023-02-03T01:11:21;7.37;;;2.93;;
13816;SDS011;6979;52.116;5.286;2023-02-03T01:13:51;9.30;;;3.77;;
13816;SDS011;6979;52.116;5.286;2023-02-03T01:16:29;7.10;;;3.93;;
13816;SDS011;6979;52.116;5.286;2023-02-03T01:19:00;7.43;;;3.33;;
13816;SDS011;6979;52.116;5.286;2023-02-03T01:21:30;7.33;;;2.93;;
13816;SDS011;6979;52.116;5.286;2023-02-03T01:23:58;8.90;;;3.63;;
13816;SDS011;6979;52.116;5.286;2023-02-03T01:26:25;9.03;;;3.27;;
13816;SDS011;6979;52.116;5.286;2023-02-03T01:28:53;8.30;;;3.20;;
13816;SDS011;6979;52.116;5.286;2023-02-03T01:31:32;3.73;;;2.63;;
13816;SDS011;6979;52.116;5.286;2023-02-03T01:34:01;8.07;;;3.47;;
13816;SDS011;6979;52.116;5.286;2023-02-03T01:36:29;5.90;;;2.87;;
13816;SDS011;6979;52.116;5.286;2023-02-03T01:38:59;7.77;;;3.10;;
13816;SDS011;6979;52.116;5.286;2023-02-03T01:41:27;8.67;;;3.50;;
13816;SDS011;6979;52.116;5.286;2023-02-03T01:43:56;8.37;;;2.67;;
13816;SDS011;6979;52.116;5.286;2023-02-03T01:46:26;6.63;;;2.80;;
13816;SDS011;6979;52.116;5.286;2023-02-03T01:48:58;7.20;;;3.00;;
13816;SDS011;6979;52.116;5.286;2023-02-03T01:51:31;5.47;;;2.40;;
13816;SDS011;6979;52.116;5.286;2023-02-03T01:54:00;5.77;;;2.73;;
13816;SDS011;6979;52.116;5.286;2023-02-03T01:56:29;5.87;;;3.10;;
13816;SDS011;6979;52.116;5.286;2023-02-03T01:59:05;3.93;;;2.43;;
13816;SDS011;6979;52.116;5.286;2023-02-03T02:01:32;9.67;;;3.33;;
13816;SDS011;6979;52.116;5.286;2023-02-03T02:04:01;5.47;;;2.80;;
13816;SDS011;6979;52.116;5.286;2023-02-03T02:06:31;5.50;;;2.20;;
13816;SDS011;6979;52.116;5.286;2023-02-03T02:09:01;4.57;;;2.20;;
13816;SDS011;6979;52.116;5.286;2023-02-03T02:11:29;6.20;;;2.93;;
13816;SDS011;6979;52.116;5.286;2023-02-03T02:13:57;7.40;;;2.43;;
13816;SDS011;6979;52.116;5.286;2023-02-03T02:16:27;9.57;;;3.13;;
13816;SDS011;6979;52.116;5.286;2023-02-03T02:19:11;8.00;;;2.97;;
13816;SDS011;6979;52.116;5.286;2023-02-03T02:22:10;7.57;;;2.60;;
13816;SDS011;6979;52.116;5.286;2023-02-03T02:27:56;5.90;;;2.30;;
13816;SDS011;6979;52.116;5.286;2023-02-03T02:31:01;5.77;;;2.40;;
13816;SDS011;6979;52.116;5.286;2023-02-03T02:34:00;7.20;;;2.60;;
13816;SDS011;6979;52.116;5.286;2023-02-03T02:36:34;6.53;;;2.97;;
13816;SDS011;6979;52.116;5.286;2023-02-03T02:39:08;3.97;;;1.60;;
13816;SDS011;6979;52.116;5.286;2023-02-03T02:41:41;2.73;;;1.87;;
13816;SDS011;6979;52.116;5.286;2023-02-03T02:44:13;5.67;;;2.53;;
13816;SDS011;6979;52.116;5.286;2023-02-03T02:46:45;4.03;;;2.40;;
13816;SDS011;6979;52.116;5.286;2023-02-03T02:49:16;5.87;;;2.13;;
13816;SDS011;6979;52.116;5.286;2023-02-03T02:51:47;4.67;;;2.17;;
13816;SDS011;6979;52.116;5.286;2023-02-03T02:57:03;5.23;;;2.07;;
13816;SDS011;6979;52.116;5.286;2023-02-03T02:59:32;5.53;;;2.17;;
13816;SDS011;6979;52.116;5.286;2023-02-03T03:01:59;3.87;;;1.83;;
13816;SDS011;6979;52.116;5.286;2023-02-03T03:04:28;5.13;;;1.80;;
13816;SDS011;6979;52.116;5.286;2023-02-03T03:06:58;4.93;;;2.20;;
13816;SDS011;6979;52.116;5.286;2023-02-03T03:09:29;2.63;;;1.60;;
13816;SDS011;6979;52.116;5.286;2023-02-03T03:12:01;2.07;;;1.63;;
13816;SDS011;6979;52.116;5.286;2023-02-03T03:14:33;6.50;;;2.07;;
13816;SDS011;6979;52.116;5.286;2023-02-03T03:17:03;2.67;;;2.03;;
13816;SDS011;6979;52.116;5.286;2023-02-03T03:19:34;4.60;;;2.17;;
13816;SDS011;6979;52.116;5.286;2023-02-03T03:22:06;5.13;;;2.27;;
13816;SDS011;6979;52.116;5.286;2023-02-03T03:24:36;4.27;;;2.43;;
13816;SDS011;6979;52.116;5.286;2023-02-03T03:27:08;7.73;;;2.57;;
13816;SDS011;6979;52.116;5.286;2023-02-03T03:29:39;5.10;;;2.07;;
13816;SDS011;6979;52.116;5.286;2023-02-03T03:32:08;6.90;;;2.20;;
13816;SDS011;6979;52.116;5.286;2023-02-03T03:34:38;5.93;;;2.30;;
13816;SDS011;6979;52.116;5.286;2023-02-03T03:37:09;5.70;;;2.77;;
13816;SDS011;6979;52.116;5.286;2023-02-03T03:39:43;3.77;;;2.00;;
13816;SDS011;6979;52.116;5.286;2023-02-03T03:42:13;5.33;;;2.53;;
13816;SDS011;6979;52.116;5.286;2023-02-03T03:44:47;6.30;;;1.80;;
13816;SDS011;6979;52.116;5.286;2023-02-03T03:47:22;3.47;;;1.50;;
13816;SDS011;6979;52.116;5.286;2023-02-03T03:49:57;4.27;;;1.97;;
13816;SDS011;6979;52.116;5.286;2023-02-03T03:52:27;3.93;;;2.30;;
13816;SDS011;6979;52.116;5.286;2023-02-03T03:54:57;8.00;;;2.23;;
13816;SDS011;6979;52.116;5.286;2023-02-03T03:57:27;2.73;;;1.97;;
13816;SDS011;6979;52.116;5.286;2023-02-03T03:59:59;4.20;;;1.77;;
13816;SDS011;6979;52.116;5.286;2023-02-03T04:02:37;4.37;;;1.50;;
13816;SDS011;6979;52.116;5.286;2023-02-03T04:05:07;3.03;;;1.50;;
13816;SDS011;6979;52.116;5.286;2023-02-03T04:07:37;5.73;;;1.80;;
13816;SDS011;6979;52.116;5.286;2023-02-03T04:10:04;2.07;;;1.87;;
13816;SDS011;6979;52.116;5.286;2023-02-03T04:12:38;3.07;;;1.90;;
13816;SDS011;6979;52.116;5.286;2023-02-03T04:15:05;3.43;;;1.60;;
13816;SDS011;6979;52.116;5.286;2023-02-03T04:17:32;2.87;;;1.30;;
13816;SDS011;6979;52.116;5.286;2023-02-03T04:20:00;5.40;;;1.50;;
13816;SDS011;6979;52.116;5.286;2023-02-03T04:22:29;3.70;;;1.57;;
13816;SDS011;6979;52.116;5.286;2023-02-03T04:24:56;3.67;;;1.93;;
13816;SDS011;6979;52.116;5.286;2023-02-03T04:27:23;2.47;;;1.43;;
13816;SDS011;6979;52.116;5.286;2023-02-03T04:29:53;2.70;;;1.40;;
13816;SDS011;6979;52.116;5.286;2023-02-03T04:32:22;5.17;;;1.77;;
13816;SDS011;6979;52.116;5.286;2023-02-03T04:34:49;3.67;;;1.53;;
13816;SDS011;6979;52.116;5.286;2023-02-03T04:37:16;6.63;;;2.00;;
13816;SDS011;6979;52.116;5.286;2023-02-03T04:39:44;5.13;;;1.60;;
13816;SDS011;6979;52.116;5.286;2023-02-03T04:42:11;3.03;;;1.60;;
13816;SDS011;6979;52.116;5.286;2023-02-03T04:44:38;2.27;;;1.20;;
13816;SDS011;6979;52.116;5.286;2023-02-03T04:47:05;3.30;;;1.57;;
13816;SDS011;6979;52.116;5.286;2023-02-03T04:49:35;3.30;;;1.60;;
13816;SDS011;6979;52.116;5.286;2023-02-03T04:52:02;4.20;;;2.10;;
13816;SDS011;6979;52.116;5.286;2023-02-03T04:54:30;7.40;;;1.87;;
13816;SDS011;6979;52.116;5.286;2023-02-03T04:56:59;4.40;;;1.90;;
13816;SDS011;6979;52.116;5.286;2023-02-03T04:59:28;2.80;;;1.43;;
13816;SDS011;6979;52.116;5.286;2023-02-03T05:01:56;3.23;;;1.50;;
13816;SDS011;6979;52.116;5.286;2023-02-03T05:04:22;5.90;;;2.43;;
13816;SDS011;6979;52.116;5.286;2023-02-03T05:06:50;3.50;;;1.50;;
13816;SDS011;6979;52.116;5.286;2023-02-03T05:09:18;4.83;;;1.77;;
13816;SDS011;6979;52.116;5.286;2023-02-03T05:11:45;3.40;;;1.30;;
13816;SDS011;6979;52.116;5.286;2023-02-03T05:14:13;5.80;;;2.00;;
13816;SDS011;6979;52.116;5.286;2023-02-03T05:16:40;4.00;;;1.67;;
13816;SDS011;6979;52.116;5.286;2023-02-03T05:19:07;2.20;;;1.70;;
13816;SDS011;6979;52.116;5.286;2023-02-03T05:21:37;7.70;;;2.07;;
13816;SDS011;6979;52.116;5.286;2023-02-03T05:24:04;4.50;;;1.60;;
13816;SDS011;6979;52.116;5.286;2023-02-03T05:26:32;3.23;;;2.07;;
13816;SDS011;6979;52.116;5.286;2023-02-03T05:28:59;2.53;;;1.27;;
13816;SDS011;6979;52.116;5.286;2023-02-03T05:31:30;4.07;;;1.80;;
13816;SDS011;6979;52.116;5.286;2023-02-03T05:33:57;5.07;;;1.93;;
13816;SDS011;6979;52.116;5.286;2023-02-03T05:36:24;5.57;;;2.10;;
13816;SDS011;6979;52.116;5.286;2023-02-03T05:38:51;4.53;;;1.90;;
13816;SDS011;6979;52.116;5.286;2023-02-03T05:41:20;2.17;;;1.60;;
13816;SDS011;6979;52.116;5.286;2023-02-03T05:44:04;4.30;;;1.63;;
13816;SDS011;6979;52.116;5.286;2023-02-03T05:46:33;4.20;;;1.63;;
13816;SDS011;6979;52.116;5.286;2023-02-03T05:48:59;5.63;;;2.60;;
13816;SDS011;6979;52.116;5.286;2023-02-03T05:51:26;3.83;;;1.93;;
13816;SDS011;6979;52.116;5.286;2023-02-03T05:53:53;3.03;;;1.70;;
13816;SDS011;6979;52.116;5.286;2023-02-03T05:56:20;3.83;;;1.87;;
13816;SDS011;6979;52.116;5.286;2023-02-03T05:58:47;4.73;;;2.03;;
13816;SDS011;6979;52.116;5.286;2023-02-03T06:01:20;3.63;;;1.70;;
13816;SDS011;6979;52.116;5.286;2023-02-03T06:03:48;6.47;;;2.03;;
13816;SDS011;6979;52.116;5.286;2023-02-03T06:06:16;5.60;;;1.73;;
13816;SDS011;6979;52.116;5.286;2023-02-03T06:08:43;5.37;;;1.80;;
13816;SDS011;6979;52.116;5.286;2023-02-03T06:11:10;6.10;;;2.67;;
13816;SDS011;6979;52.116;5.286;2023-02-03T06:13:37;6.13;;;2.40;;
13816;SDS011;6979;52.116;5.286;2023-02-03T06:16:04;5.47;;;1.90;;
13816;SDS011;6979;52.116;5.286;2023-02-03T06:18:31;4.47;;;2.20;;
13816;SDS011;6979;52.116;5.286;2023-02-03T06:21:00;7.07;;;2.20;;
13816;SDS011;6979;52.116;5.286;2023-02-03T06:23:27;6.70;;;2.10;;
13816;SDS011;6979;52.116;5.286;2023-02-03T06:25:53;5.73;;;2.70;;
13816;SDS011;6979;52.116;5.286;2023-02-03T06:28:20;5.63;;;1.73;;
13816;SDS011;6979;52.116;5.286;2023-02-03T06:30:48;3.20;;;2.10;;
13816;SDS011;6979;52.116;5.286;2023-02-03T06:33:16;6.10;;;1.90;;
13816;SDS011;6979;52.116;5.286;2023-02-03T06:35:42;8.63;;;2.10;;
13816;SDS011;6979;52.116;5.286;2023-02-03T06:38:11;4.60;;;2.10;;
13816;SDS011;6979;52.116;5.286;2023-02-03T06:40:38;3.73;;;2.20;;
13816;SDS011;6979;52.116;5.286;2023-02-03T06:43:04;3.63;;;2.20;;
13816;SDS011;6979;52.116;5.286;2023-02-03T06:45:31;3.57;;;1.67;;
13816;SDS011;6979;52.116;5.286;2023-02-03T06:47:59;6.13;;;2.20;;
13816;SDS011;6979;52.116;5.286;2023-02-03T06:50:28;5.80;;;2.53;;
13816;SDS011;6979;52.116;5.286;2023-02-03T06:52:55;6.53;;;2.07;;
13816;SDS011;6979;52.116;5.286;2023-02-03T06:55:23;4.03;;;1.90;;
13816;SDS011;6979;52.116;5.286;2023-02-03T06:57:50;4.73;;;2.40;;
13816;SDS011;6979;52.116;5.286;2023-02-03T07:00:17;3.50;;;2.17;;
13816;SDS011;6979;52.116;5.286;2023-02-03T07:02:45;3.83;;;1.80;;
13816;SDS011;6979;52.116;5.286;2023-02-03T07:05:18;4.00;;;2.13;;
13816;SDS011;6979;52.116;5.286;2023-02-03T07:07:45;2.70;;;1.70;;
13816;SDS011;6979;52.116;5.286;2023-02-03T07:10:11;4.63;;;2.07;;
13816;SDS011;6979;52.116;5.286;2023-02-03T07:12:40;4.80;;;1.97;;
13816;SDS011;6979;52.116;5.286;2023-02-03T07:15:09;6.83;;;2.30;;
13816;SDS011;6979;52.116;5.286;2023-02-03T07:17:37;5.33;;;2.43;;
13816;SDS011;6979;52.116;5.286;2023-02-03T07:20:04;4.70;;;2.10;;
13816;SDS011;6979;52.116;5.286;2023-02-03T07:22:32;6.50;;;2.27;;
13816;SDS011;6979;52.116;5.286;2023-02-03T07:25:00;6.47;;;2.17;;
13816;SDS011;6979;52.116;5.286;2023-02-03T07:27:27;3.37;;;1.60;;
13816;SDS011;6979;52.116;5.286;2023-02-03T07:29:56;4.43;;;2.13;;
13816;SDS011;6979;52.116;5.286;2023-02-03T07:32:22;7.80;;;2.60;;
13816;SDS011;6979;52.116;5.286;2023-02-03T07:34:49;6.20;;;2.07;;
13816;SDS011;6979;52.116;5.286;2023-02-03T07:37:16;4.00;;;1.87;;
13816;SDS011;6979;52.116;5.286;2023-02-03T07:39:43;2.70;;;2.07;;
13816;SDS011;6979;52.116;5.286;2023-02-03T07:42:10;5.63;;;1.87;;
13816;SDS011;6979;52.116;5.286;2023-02-03T07:44:42;6.00;;;2.00;;
13816;SDS011;6979;52.116;5.286;2023-02-03T07:47:10;7.03;;;2.50;;
13816;SDS011;6979;52.116;5.286;2023-02-03T07:49:37;4.77;;;2.20;;
13816;SDS011;6979;52.116;5.286;2023-02-03T07:52:04;6.20;;;2.40;;
13816;SDS011;6979;52.116;5.286;2023-02-03T07:54:31;4.83;;;2.23;;
13816;SDS011;6979;52.116;5.286;2023-02-03T07:56:57;7.97;;;2.50;;
13816;SDS011;6979;52.116;5.286;2023-02-03T07:59:26;4.60;;;2.27;;
13816;SDS011;6979;52.116;5.286;2023-02-03T08:01:53;7.00;;;2.40;;
13816;SDS011;6979;52.116;5.286;2023-02-03T08:04:22;5.27;;;2.43;;
13816;SDS011;6979;52.116;5.286;2023-02-03T08:06:48;7.87;;;2.30;;
13816;SDS011;6979;52.116;5.286;2023-02-03T08:09:15;7.27;;;2.20;;
13816;SDS011;6979;52.116;5.286;2023-02-03T08:11:42;4.60;;;2.07;;
13816;SDS011;6979;52.116;5.286;2023-02-03T08:14:09;5.43;;;2.30;;
13816;SDS011;6979;52.116;5.286;2023-02-03T08:16:36;5.67;;;3.10;;
13816;SDS011;6979;52.116;5.286;2023-02-03T08:19:03;6.83;;;3.03;;
13816;SDS011;6979;52.116;5.286;2023-02-03T08:21:31;4.60;;;1.90;;
13816;SDS011;6979;52.116;5.286;2023-02-03T08:23:58;7.30;;;3.00;;
13816;SDS011;6979;52.116;5.286;2023-02-03T08:26:26;4.63;;;2.33;;
13816;SDS011;6979;52.116;5.286;2023-02-03T08:28:56;8.03;;;2.30;;
13816;SDS011;6979;52.116;5.286;2023-02-03T08:31:23;6.07;;;2.77;;
13816;SDS011;6979;52.116;5.286;2023-02-03T08:33:50;5.23;;;2.53;;
13816;SDS011;6979;52.116;5.286;2023-02-03T08:36:17;5.37;;;2.40;;
13816;SDS011;6979;52.116;5.286;2023-02-03T08:38:45;6.53;;;2.60;;
13816;SDS011;6979;52.116;5.286;2023-02-03T08:41:13;7.97;;;1.93;;
13816;SDS011;6979;52.116;5.286;2023-02-03T08:43:42;5.70;;;2.47;;
13816;SDS011;6979;52.116;5.286;2023-02-03T08:46:10;8.03;;;2.17;;
13816;SDS011;6979;52.116;5.286;2023-02-03T08:48:38;6.23;;;2.00;;
13816;SDS011;6979;52.116;5.286;2023-02-03T08:51:08;4.47;;;1.93;;
13816;SDS011;6979;52.116;5.286;2023-02-03T08:53:36;7.73;;;2.93;;
13816;SDS011;6979;52.116;5.286;2023-02-03T08:56:05;5.33;;;2.20;;
13816;SDS011;6979;52.116;5.286;2023-02-03T08:58:32;7.53;;;2.80;;
13816;SDS011;6979;52.116;5.286;2023-02-03T09:01:04;7.27;;;2.53;;
13816;SDS011;6979;52.116;5.286;2023-02-03T09:03:33;6.13;;;2.50;;
13816;SDS011;6979;52.116;5.286;2023-02-03T09:06:00;6.83;;;2.73;;
13816;SDS011;6979;52.116;5.286;2023-02-03T09:08:28;3.50;;;1.67;;
13816;SDS011;6979;52.116;5.286;2023-02-03T09:10:55;6.80;;;2.10;;
13816;SDS011;6979;52.116;5.286;2023-02-03T09:13:24;3.83;;;2.30;;
13816;SDS011;6979;52.116;5.286;2023-02-03T09:15:54;5.10;;;2.20;;
13816;SDS011;6979;52.116;5.286;2023-02-03T09:18:25;2.87;;;2.37;;
13816;SDS011;6979;52.116;5.286;2023-02-03T09:20:58;3.77;;;2.00;;
13816;SDS011;6979;52.116;5.286;2023-02-03T09:23:26;9.10;;;2.50;;
13816;SDS011;6979;52.116;5.286;2023-02-03T09:25:53;6.30;;;2.57;;
13816;SDS011;6979;52.116;5.286;2023-02-03T09:28:19;5.90;;;2.50;;
13816;SDS011;6979;52.116;5.286;2023-02-03T09:30:48;2.90;;;2.00;;
13816;SDS011;6979;52.116;5.286;2023-02-03T09:33:14;4.47;;;2.37;;
13816;SDS011;6979;52.116;5.286;2023-02-03T09:35:41;6.20;;;2.40;;
13816;SDS011;6979;52.116;5.286;2023-02-03T09:38:16;2.33;;;2.13;;
13816;SDS011;6979;52.116;5.286;2023-02-03T09:40:43;4.03;;;2.00;;
13816;SDS011;6979;52.116;5.286;2023-02-03T09:43:19;4.47;;;2.10;;
13816;SDS011;6979;52.116;5.286;2023-02-03T09:46:04;2.53;;;1.90;;
13816;SDS011;6979;52.116;5.286;2023-02-03T09:48:34;2.20;;;1.90;;
13816;SDS011;6979;52.116;5.286;2023-02-03T09:51:07;6.83;;;2.73;;
13816;SDS011;6979;52.116;5.286;2023-02-03T09:53:44;6.97;;;2.33;;
13816;SDS011;6979;52.116;5.286;2023-02-03T09:56:22;5.20;;;2.17;;
13816;SDS011;6979;52.116;5.286;2023-02-03T09:58:57;8.77;;;2.10;;
13816;SDS011;6979;52.116;5.286;2023-02-03T10:01:27;3.77;;;1.67;;
13816;SDS011;6979;52.116;5.286;2023-02-03T10:03:59;3.97;;;1.80;;
13816;SDS011;6979;52.116;5.286;2023-02-03T10:06:34;3.13;;;2.33;;
13816;SDS011;6979;52.116;5.286;2023-02-03T10:12:14;5.33;;;2.67;;
13816;SDS011;6979;52.116;5.286;2023-02-03T10:15:02;4.07;;;2.17;;
13816;SDS011;6979;52.116;5.286;2023-02-03T10:17:47;4.50;;;2.10;;
13816;SDS011;6979;52.116;5.286;2023-02-03T10:20:28;5.60;;;2.77;;
13816;SDS011;6979;52.116;5.286;2023-02-03T10:23:01;3.10;;;2.00;;
13816;SDS011;6979;52.116;5.286;2023-02-03T10:25:33;3.23;;;1.80;;
13816;SDS011;6979;52.116;5.286;2023-02-03T10:28:08;5.23;;;2.20;;
13816;SDS011;6979;52.116;5.286;2023-02-03T10:30:41;4.43;;;2.00;;
13816;SDS011;6979;52.116;5.286;2023-02-03T10:33:14;3.40;;;1.70;;
13816;SDS011;6979;52.116;5.286;2023-02-03T10:35:46;5.17;;;2.20;;
13816;SDS011;6979;52.116;5.286;2023-02-03T10:38:18;4.23;;;1.97;;
13816;SDS011;6979;52.116;5.286;2023-02-03T10:40:58;3.43;;;2.10;;
13816;SDS011;6979;52.116;5.286;2023-02-03T10:43:28;4.53;;;2.00;;
13816;SDS011;6979;52.116;5.286;2023-02-03T10:46:16;3.50;;;2.10;;
13816;SDS011;6979;52.116;5.286;2023-02-03T10:48:45;4.57;;;2.00;;
13816;SDS011;6979;52.116;5.286;2023-02-03T10:51:19;3.00;;;1.67;;
13816;SDS011;6979;52.116;5.286;2023-02-03T10:53:48;10.67;;;5.17;;
13816;SDS011;6979;52.116;5.286;2023-02-03T10:56:18;4.50;;;2.40;;
13816;SDS011;6979;52.116;5.286;2023-02-03T10:58:48;5.53;;;2.33;;
13816;SDS011;6979;52.116;5.286;2023-02-03T11:01:17;7.57;;;2.20;;
13816;SDS011;6979;52.116;5.286;2023-02-03T11:03:54;4.57;;;2.07;;
13816;SDS011;6979;52.116;5.286;2023-02-03T11:06:24;3.03;;;2.30;;
13816;SDS011;6979;52.116;5.286;2023-02-03T11:08:51;6.00;;;2.57;;
13816;SDS011;6979;52.116;5.286;2023-02-03T11:11:20;5.40;;;2.53;;
13816;SDS011;6979;52.116;5.286;2023-02-03T11:13:52;5.03;;;2.03;;
13816;SDS011;6979;52.116;5.286;2023-02-03T11:16:36;6.50;;;2.17;;
13816;SDS011;6979;52.116;5.286;2023-02-03T11:19:05;3.50;;;2.17;;
13816;SDS011;6979;52.116;5.286;2023-02-03T11:21:41;5.37;;;2.27;;
13816;SDS011;6979;52.116;5.286;2023-02-03T11:24:12;7.83;;;3.47;;
13816;SDS011;6979;52.116;5.286;2023-02-03T11:26:46;5.57;;;2.30;;
13816;SDS011;6979;52.116;5.286;2023-02-03T11:29:17;7.27;;;2.67;;
13816;SDS011;6979;52.116;5.286;2023-02-03T11:31:48;6.27;;;3.07;;
13816;SDS011;6979;52.116;5.286;2023-02-03T11:34:18;6.13;;;2.50;;
13816;SDS011;6979;52.116;5.286;2023-02-03T11:36:50;4.70;;;2.10;;
13816;SDS011;6979;52.116;5.286;2023-02-03T11:39:19;4.63;;;2.20;;
13816;SDS011;6979;52.116;5.286;2023-02-03T11:41:51;4.90;;;2.37;;
13816;SDS011;6979;52.116;5.286;2023-02-03T11:44:20;3.87;;;2.23;;
13816;SDS011;6979;52.116;5.286;2023-02-03T11:46:54;6.37;;;2.33;;
13816;SDS011;6979;52.116;5.286;2023-02-03T11:52:31;5.40;;;2.43;;
13816;SDS011;6979;52.116;5.286;2023-02-03T11:55:22;5.30;;;2.10;;
13816;SDS011;6979;52.116;5.286;2023-02-03T11:58:00;5.73;;;2.73;;
13816;SDS011;6979;52.116;5.286;2023-02-03T12:00:39;3.80;;;2.20;;
13816;SDS011;6979;52.116;5.286;2023-02-03T12:03:18;5.57;;;2.40;;
13816;SDS011;6979;52.116;5.286;2023-02-03T12:06:07;3.13;;;1.77;;
13816;SDS011;6979;52.116;5.286;2023-02-03T12:08:55;6.57;;;2.50;;
13816;SDS011;6979;52.116;5.286;2023-02-03T12:11:37;4.83;;;2.43;;
13816;SDS011;6979;52.116;5.286;2023-02-03T12:14:21;5.00;;;2.20;;
13816;SDS011;6979;52.116;5.286;2023-02-03T12:17:05;5.63;;;2.27;;
13816;SDS011;6979;52.116;5.286;2023-02-03T12:19:54;5.53;;;2.33;;
13816;SDS011;6979;52.116;5.286;2023-02-03T12:22:32;4.17;;;1.90;;
13816;SDS011;6979;52.116;5.286;2023-02-03T12:25:17;5.23;;;2.13;;
13816;SDS011;6979;52.116;5.286;2023-02-03T12:27:55;5.53;;;3.17;;
13816;SDS011;6979;52.116;5.286;2023-02-03T12:30:31;3.27;;;1.80;;
13816;SDS011;6979;52.116;5.286;2023-02-03T12:33:03;5.17;;;2.70;;
13816;SDS011;6979;52.116;5.286;2023-02-03T12:35:41;6.77;;;2.10;;
13816;SDS011;6979;52.116;5.286;2023-02-03T12:38:17;4.03;;;2.13;;
13816;SDS011;6979;52.116;5.286;2023-02-03T12:40:55;5.43;;;2.30;;
13816;SDS011;6979;52.116;5.286;2023-02-03T12:43:29;4.70;;;2.67;;
13816;SDS011;6979;52.116;5.286;2023-02-03T12:46:03;6.20;;;2.70;;
13816;SDS011;6979;52.116;5.286;2023-02-03T12:48:39;4.90;;;2.27;;
13816;SDS011;6979;52.116;5.286;2023-02-03T12:51:12;4.53;;;2.47;;
13816;SDS011;6979;52.116;5.286;2023-02-03T12:53:55;5.93;;;2.33;;
13816;SDS011;6979;52.116;5.286;2023-02-03T12:56:30;5.87;;;2.33;;
13816;SDS011;6979;52.116;5.286;2023-02-03T12:59:04;4.60;;;2.53;;
13816;SDS011;6979;52.116;5.286;2023-02-03T13:01:39;3.63;;;2.50;;
13816;SDS011;6979;52.116;5.286;2023-02-03T13:04:09;4.40;;;2.20;;
13816;SDS011;6979;52.116;5.286;2023-02-03T13:06:46;3.63;;;2.63;;
13816;SDS011;6979;52.116;5.286;2023-02-03T13:09:21;3.70;;;2.30;;
13816;SDS011;6979;52.116;5.286;2023-02-03T13:11:58;7.43;;;2.67;;
13816;SDS011;6979;52.116;5.286;2023-02-03T13:14:30;6.10;;;2.83;;
13816;SDS011;6979;52.116;5.286;2023-02-03T13:17:02;3.23;;;1.90;;
13816;SDS011;6979;52.116;5.286;2023-02-03T13:19:37;6.50;;;2.40;;
13816;SDS011;6979;52.116;5.286;2023-02-03T13:22:11;5.67;;;2.80;;
13816;SDS011;6979;52.116;5.286;2023-02-03T13:24:50;6.77;;;2.63;;
13816;SDS011;6979;52.116;5.286;2023-02-03T13:27:30;8.30;;;3.17;;
13816;SDS011;6979;52.116;5.286;2023-02-03T13:33:09;7.27;;;2.87;;
13816;SDS011;6979;52.116;5.286;2023-02-03T13:36:00;12.43;;;3.23;;
13816;SDS011;6979;52.116;5.286;2023-02-03T13:38:57;4.77;;;2.97;;
13816;SDS011;6979;52.116;5.286;2023-02-03T13:41:39;4.47;;;2.50;;
13816;SDS011;6979;52.116;5.286;2023-02-03T13:44:15;4.97;;;2.33;;
13816;SDS011;6979;52.116;5.286;2023-02-03T13:46:46;4.83;;;2.73;;
13816;SDS011;6979;52.116;5.286;2023-02-03T13:49:19;8.60;;;3.50;;
13816;SDS011;6979;52.116;5.286;2023-02-03T13:51:51;7.17;;;3.00;;
13816;SDS011;6979;52.116;5.286;2023-02-03T13:54:21;7.87;;;3.23;;
13816;SDS011;6979;52.116;5.286;2023-02-03T13:56:52;5.87;;;2.80;;
13816;SDS011;6979;52.116;5.286;2023-02-03T13:59:28;6.47;;;2.63;;
13816;SDS011;6979;52.116;5.286;2023-02-03T14:05:06;13.50;;;3.77;;
13816;SDS011;6979;52.116;5.286;2023-02-03T14:20:42;8.57;;;2.87;;
13816;SDS011;6979;52.116;5.286;2023-02-03T14:23:16;16.17;;;3.67;;
13816;SDS011;6979;52.116;5.286;2023-02-03T14:26:02;12.53;;;4.07;;
13816;SDS011;6979;52.116;5.286;2023-02-03T14:28:36;8.30;;;3.40;;
13816;SDS011;6979;52.116;5.286;2023-02-03T14:31:13;8.10;;;3.13;;
13816;SDS011;6979;52.116;5.286;2023-02-03T14:33:49;10.27;;;4.27;;
13816;SDS011;6979;52.116;5.286;2023-02-03T14:36:31;9.47;;;3.50;;
13816;SDS011;6979;52.116;5.286;2023-02-03T14:39:02;11.40;;;4.00;;
13816;SDS011;6979;52.116;5.286;2023-02-03T14:41:48;7.23;;;3.30;;
13816;SDS011;6979;52.116;5.286;2023-02-03T14:44:22;8.53;;;3.40;;
13816;SDS011;6979;52.116;5.286;2023-02-03T14:47:02;6.30;;;3.20;;
13816;SDS011;6979;52.116;5.286;2023-02-03T14:49:44;12.93;;;3.50;;
13816;SDS011;6979;52.116;5.286;2023-02-03T14:52:41;8.77;;;3.10;;
13816;SDS011;6979;52.116;5.286;2023-02-03T14:55:33;6.00;;;3.13;;
13816;SDS011;6979;52.116;5.286;2023-02-03T14:58:05;11.80;;;4.33;;
13816;SDS011;6979;52.116;5.286;2023-02-03T15:00:41;11.43;;;5.83;;
13816;SDS011;6979;52.116;5.286;2023-02-03T15:03:15;9.73;;;5.47;;
13816;SDS011;6979;52.116;5.286;2023-02-03T15:05:47;13.90;;;5.10;;
13816;SDS011;6979;52.116;5.286;2023-02-03T15:08:32;9.73;;;4.20;;
13816;SDS011;6979;52.116;5.286;2023-02-03T15:11:18;9.83;;;3.43;;
13816;SDS011;6979;52.116;5.286;2023-02-03T15:13:51;14.67;;;5.00;;
13816;SDS011;6979;52.116;5.286;2023-02-03T15:16:20;7.60;;;4.20;;
13816;SDS011;6979;52.116;5.286;2023-02-03T15:18:57;8.47;;;3.83;;
13816;SDS011;6979;52.116;5.286;2023-02-03T15:21:31;9.30;;;3.23;;
13816;SDS011;6979;52.116;5.286;2023-02-03T15:23:58;8.73;;;3.43;;
13816;SDS011;6979;52.116;5.286;2023-02-03T15:26:25;13.90;;;4.37;;
13816;SDS011;6979;52.116;5.286;2023-02-03T15:28:53;11.40;;;4.13;;
13816;SDS011;6979;52.116;5.286;2023-02-03T15:31:24;10.93;;;3.40;;
13816;SDS011;6979;52.116;5.286;2023-02-03T15:34:01;13.17;;;4.93;;
13816;SDS011;6979;52.116;5.286;2023-02-03T15:36:34;8.50;;;3.70;;
13816;SDS011;6979;52.116;5.286;2023-02-03T15:39:11;13.13;;;4.50;;
13816;SDS011;6979;52.116;5.286;2023-02-03T15:41:43;9.13;;;3.77;;
13816;SDS011;6979;52.116;5.286;2023-02-03T15:44:13;9.47;;;4.17;;
13816;SDS011;6979;52.116;5.286;2023-02-03T15:46:48;9.63;;;4.70;;
13816;SDS011;6979;52.116;5.286;2023-02-03T15:49:21;11.47;;;3.93;;
13816;SDS011;6979;52.116;5.286;2023-02-03T15:51:54;11.23;;;4.40;;
13816;SDS011;6979;52.116;5.286;2023-02-03T15:54:24;11.40;;;4.30;;
13816;SDS011;6979;52.116;5.286;2023-02-03T15:57:05;9.40;;;3.83;;
13816;SDS011;6979;52.116;5.286;2023-02-03T15:59:36;12.50;;;4.50;;